Hlavní strana
METAR-TAF:

METAR-TAF

Letiště :

Visby, Gotland, Švédsko

zeměpisná šířka: 57-40N, zeměpisná délka: 018-21E, výška: 51 m

Aktuální stav počasí

Zpráva byla vytvořena před 42 minutami, v 14:20 UTC
Jižní vítr 5 kt
Teplota -3°C
Vlhkost vzduchu 100%
Tlak 1027 hPa
Viditelnost 10 km a více
Oblačno až skoro zataženo ve výšce 5500 ft
chuchvalce mlhy

METAR: ESSV 181420Z 17005KT 9999 BCFG BKN055 M03/M03 Q1027 R21/71//71

Čas: 16:02 (15:02 UTC)

Předpověď počasí

Zpráva byla vytvořena před 32 minutami, v 14:30 UTC
Předpověď platná od 18 v 15 UTC do 18 v 23 UTC
Jižní vítr 5 kt
Viditelnost 10 km a více
Skoro jasno ve výšce 2000 ft
Pravděpodobnost 40%
od 18 v 15 UTC do 18 v 23 UTC
Viditelnost: 2000 m
chuchvalce mlhy

TAF: ESSV 181430Z 1815/1823 17005KT 9999 FEW020 PROB40 1815/1823 2000 BCFG NSC

Stav a předpovědi počasí z více než 4 000 letišť (zprávy METAR a TAF).

Červené a žluté tečky na mapě představují dostupné meteorologické stanice.

Když kurzor umístíte na tečku, zobrazí se název stanice.

Pak kliknutím zobrazíte stav a předpověď počasí.

Chcete-li změnit mapu, kliknutím na zelené tlačítko se znaménkem +mapu přiblížíte, kliknutím na zelené tlačítko se znaménkem – mapu oddálíte a kliknutím na zelené šipky přejdete na sousední mapy.


METAR-TAF: